createdAt,value
2018-08-03T00:03:19.515Z,21.50
2018-08-03T00:15:43.134Z,21.60
2018-08-03T00:18:11.727Z,21.80
2018-08-03T00:20:40.189Z,21.70
2018-08-03T00:23:10.589Z,21.60
2018-08-03T00:25:39.127Z,21.80
2018-08-03T00:28:07.661Z,21.40
2018-08-03T00:35:32.842Z,21.60
2018-08-03T00:40:31.936Z,21.30
2018-08-03T00:43:00.428Z,21.20
2018-08-03T00:45:29.854Z,21.30
2018-08-03T00:47:58.351Z,21.80
2018-08-03T00:50:26.878Z,21.00
2018-08-03T00:52:55.336Z,21.80
2018-08-03T00:55:23.896Z,21.60
2018-08-03T00:57:53.967Z,21.40
2018-08-03T01:00:22.425Z,20.70
2018-08-03T01:02:50.935Z,20.60
2018-08-03T01:05:20.108Z,20.70
2018-08-03T01:07:48.606Z,21.00
2018-08-03T01:10:17.161Z,20.40
2018-08-03T01:12:48.713Z,20.90
2018-08-03T01:15:17.241Z,20.90
2018-08-03T01:20:13.967Z,21.70
2018-08-03T01:22:42.459Z,21.10
2018-08-03T01:25:11.195Z,21.00
2018-08-03T01:32:42.823Z,21.00
2018-08-03T01:35:11.304Z,20.40
2018-08-03T01:37:40.970Z,20.10
2018-08-03T01:42:37.888Z,20.70
2018-08-03T01:47:35.616Z,20.70
2018-08-03T01:50:04.495Z,21.20
2018-08-03T01:55:06.093Z,21.30
2018-08-03T01:57:34.676Z,20.90
2018-08-03T02:00:03.176Z,20.90
2018-08-03T02:02:31.692Z,20.50
2018-08-03T02:05:02.675Z,21.00
2018-08-03T02:07:31.241Z,20.30
2018-08-03T02:14:58.964Z,20.80
2018-08-03T02:22:23.985Z,20.90
2018-08-03T02:24:52.808Z,20.60
2018-08-03T02:27:21.436Z,20.80
2018-08-03T02:32:18.751Z,20.20
2018-08-03T02:34:47.850Z,20.70
2018-08-03T02:37:16.362Z,20.90
2018-08-03T02:42:15.331Z,20.10
2018-08-03T02:44:43.895Z,20.50
2018-08-03T02:47:12.363Z,19.30
2018-08-03T02:52:09.354Z,20.60
2018-08-03T02:54:37.948Z,20.60
2018-08-03T02:57:06.459Z,20.30
2018-08-03T03:02:03.242Z,19.90
2018-08-03T03:04:34.761Z,19.70
2018-08-03T03:11:59.613Z,19.90
2018-08-03T03:14:28.218Z,20.00
2018-08-03T03:16:57.007Z,20.20
2018-08-03T03:19:29.440Z,20.50
2018-08-03T03:21:57.920Z,20.10
2018-08-03T03:24:26.465Z,19.90
2018-08-03T03:29:23.180Z,19.90
2018-08-03T03:31:51.664Z,19.70
2018-08-03T03:36:49.453Z,19.60
2018-08-03T03:39:18.011Z,20.90
2018-08-03T03:41:46.646Z,19.80
2018-08-03T03:44:15.414Z,19.80
2018-08-03T03:49:17.909Z,19.70
2018-08-03T03:51:46.600Z,18.70
2018-08-03T03:56:44.557Z,19.60
2018-08-03T03:59:13.363Z,19.60
2018-08-03T04:01:42.505Z,19.30
2018-08-03T04:04:11.357Z,19.90
2018-08-03T04:11:38.970Z,19.80
2018-08-03T04:14:07.690Z,19.60
2018-08-03T04:16:36.684Z,19.60
2018-08-03T04:21:34.370Z,19.70
2018-08-03T04:26:32.861Z,18.60
2018-08-03T04:29:01.382Z,19.90
2018-08-03T04:31:30.542Z,20.40
2018-08-03T04:33:59.050Z,19.30
2018-08-03T04:36:27.601Z,19.40
2018-08-03T04:38:57.534Z,19.20
2018-08-03T04:41:25.964Z,19.80
2018-08-03T04:43:54.585Z,19.30
2018-08-03T04:46:29.007Z,19.70
2018-08-03T04:48:57.447Z,20.20
2018-08-03T04:51:25.942Z,20.40
2018-08-03T04:53:58.345Z,20.00
2018-08-03T04:56:26.860Z,20.10
2018-08-03T04:58:55.613Z,19.50
2018-08-03T05:01:24.077Z,19.70
2018-08-03T05:03:56.383Z,20.90
2018-08-03T05:08:52.988Z,20.20
2018-08-03T05:11:22.665Z,19.70
2018-08-03T05:18:55.410Z,21.10
2018-08-03T05:21:26.426Z,20.10
2018-08-03T05:26:24.086Z,20.90
2018-08-03T05:28:54.978Z,21.10
2018-08-03T05:31:23.672Z,20.80
2018-08-03T05:33:53.646Z,21.40
2018-08-03T05:36:27.507Z,20.30
2018-08-03T05:39:05.543Z,21.10
2018-08-03T05:41:34.918Z,22.00
2018-08-03T05:44:04.572Z,20.10
2018-08-03T05:46:33.068Z,21.50
2018-08-03T05:49:01.553Z,21.60
2018-08-03T05:51:30.731Z,21.90
2018-08-03T05:53:59.229Z,21.60
2018-08-03T05:56:27.713Z,22.30
2018-08-03T05:58:56.249Z,21.90
2018-08-03T06:01:24.900Z,22.00
2018-08-03T06:03:53.453Z,22.20
2018-08-03T06:06:21.999Z,22.60
2018-08-03T06:08:53.933Z,22.70
2018-08-03T06:11:22.661Z,21.10
2018-08-03T06:13:51.364Z,20.10
2018-08-03T06:16:19.986Z,22.40
2018-08-03T06:18:48.447Z,23.20
2018-08-03T06:21:17.060Z,22.50
2018-08-03T06:23:46.475Z,23.30
2018-08-03T06:26:15.012Z,25.40
2018-08-03T06:28:43.552Z,24.00
2018-08-03T06:31:13.133Z,23.60
2018-08-03T06:33:41.690Z,24.10
2018-08-03T06:36:10.226Z,24.30
2018-08-03T06:38:38.784Z,24.90
2018-08-03T06:41:10.515Z,24.60
2018-08-03T06:43:38.967Z,25.20
2018-08-03T06:46:10.205Z,24.60
2018-08-03T06:48:38.819Z,23.70
2018-08-03T06:51:07.309Z,25.20
2018-08-03T06:53:38.128Z,25.60
2018-08-03T06:56:06.882Z,26.20
2018-08-03T06:58:35.441Z,26.10
2018-08-03T07:01:04.020Z,25.00
2018-08-03T07:03:34.974Z,25.90
2018-08-03T07:06:03.541Z,25.80
2018-08-03T07:08:33.535Z,25.60
2018-08-03T07:11:03.946Z,25.70
2018-08-03T07:13:33.311Z,25.40
2018-08-03T07:16:02.149Z,26.20
2018-08-03T07:18:32.545Z,25.80
2018-08-03T07:21:01.983Z,24.80
2018-08-03T07:23:30.485Z,25.40
2018-08-03T07:25:59.120Z,25.10
2018-08-03T07:28:27.554Z,25.50
2018-08-03T07:30:56.805Z,25.10
2018-08-03T07:33:25.372Z,24.00
2018-08-03T07:35:54.121Z,25.40
2018-08-03T07:38:22.674Z,25.20
2018-08-03T07:40:51.698Z,26.20
2018-08-03T07:43:20.507Z,25.80
2018-08-03T07:45:50.487Z,25.50
2018-08-03T07:48:19.067Z,25.60
2018-08-03T07:50:47.584Z,25.70
2018-08-03T07:53:17.590Z,26.90
2018-08-03T07:55:46.099Z,27.10
2018-08-03T07:58:14.600Z,26.50
2018-08-03T08:00:45.921Z,27.60
2018-08-03T08:03:14.468Z,27.00
2018-08-03T08:05:42.953Z,26.80
2018-08-03T08:08:15.927Z,27.00
2018-08-03T08:10:44.431Z,27.40
2018-08-03T08:13:12.896Z,26.70
2018-08-03T08:15:41.398Z,28.00
2018-08-03T08:18:10.058Z,27.20
2018-08-03T08:25:35.839Z,29.90
2018-08-03T08:28:05.983Z,28.80
2018-08-03T08:30:34.689Z,29.90
2018-08-03T08:33:03.249Z,29.40
2018-08-03T08:35:31.733Z,30.50
2018-08-03T08:38:00.231Z,28.60
2018-08-03T08:40:29.153Z,29.50
2018-08-03T08:42:58.652Z,29.70
2018-08-03T08:45:27.295Z,30.60
2018-08-03T08:47:55.900Z,29.20
2018-08-03T08:52:53.517Z,31.80
2018-08-03T08:55:22.202Z,30.70
2018-08-03T08:57:55.006Z,31.10
2018-08-03T09:00:23.577Z,30.50
2018-08-03T09:02:52.137Z,31.00
2018-08-03T09:05:23.697Z,31.80
2018-08-03T09:07:52.232Z,30.30
2018-08-03T09:10:20.836Z,32.30
2018-08-03T09:12:52.949Z,31.60
2018-08-03T09:15:21.518Z,32.00
2018-08-03T09:17:50.028Z,32.20
2018-08-03T09:20:18.806Z,32.10
2018-08-03T09:22:47.317Z,30.10
2018-08-03T09:27:44.822Z,30.50
2018-08-03T09:30:14.247Z,30.70
2018-08-03T09:32:42.787Z,32.20
2018-08-03T09:37:40.305Z,31.80
2018-08-03T09:40:08.979Z,33.20
2018-08-03T09:42:37.430Z,32.10
2018-08-03T09:45:06.027Z,31.00
2018-08-03T09:47:34.507Z,33.20
2018-08-03T09:50:03.129Z,33.30
2018-08-03T09:52:33.216Z,34.00
2018-08-03T09:55:01.789Z,32.90
2018-08-03T09:57:31.604Z,32.80
2018-08-03T10:00:00.105Z,32.90
2018-08-03T10:02:28.565Z,31.90
2018-08-03T10:04:59.794Z,32.10
2018-08-03T10:07:28.402Z,32.20
2018-08-03T10:09:56.815Z,33.50
2018-08-03T10:12:25.596Z,33.70
2018-08-03T10:14:54.060Z,34.50
2018-08-03T10:17:22.540Z,33.20
2018-08-03T10:19:52.539Z,33.50
2018-08-03T10:22:21.192Z,32.80
2018-08-03T10:24:52.035Z,34.50
2018-08-03T10:27:20.669Z,34.30
2018-08-03T10:29:49.806Z,33.60
2018-08-03T10:32:18.377Z,33.80
2018-08-03T10:34:47.003Z,33.50
2018-08-03T10:37:16.828Z,32.90
2018-08-03T10:39:46.197Z,34.00
2018-08-03T10:42:14.814Z,33.50
2018-08-03T10:44:46.200Z,33.90
2018-08-03T10:47:14.758Z,33.00
2018-08-03T10:49:43.332Z,33.20
2018-08-03T10:52:13.511Z,33.50
2018-08-03T10:54:42.119Z,33.20
2018-08-03T10:57:10.677Z,32.80
2018-08-03T10:59:40.300Z,32.20
2018-08-03T11:02:08.927Z,30.40
2018-08-03T11:04:37.558Z,32.30
2018-08-03T11:07:08.058Z,31.90
2018-08-03T11:09:36.549Z,32.50
2018-08-03T11:12:05.377Z,32.40
2018-08-03T11:14:34.214Z,33.60
2018-08-03T11:17:03.654Z,33.10
2018-08-03T11:19:32.155Z,34.00
2018-08-03T11:22:01.152Z,34.20
2018-08-03T11:24:31.223Z,35.00
2018-08-03T11:26:59.744Z,35.10
2018-08-03T11:29:28.456Z,36.80
2018-08-03T11:31:57.651Z,36.30
2018-08-03T11:34:26.193Z,35.90
2018-08-03T11:39:23.069Z,35.30
2018-08-03T11:41:51.681Z,36.30
2018-08-03T11:44:20.206Z,36.80
2018-08-03T11:46:48.748Z,34.70
2018-08-03T11:49:21.078Z,35.90
2018-08-03T11:51:49.787Z,36.80
2018-08-03T11:54:18.312Z,36.40
2018-08-03T11:56:50.049Z,35.30
2018-08-03T11:59:18.667Z,36.10
2018-08-03T12:01:47.246Z,37.00
2018-08-03T12:04:15.763Z,36.80
2018-08-03T12:06:44.538Z,36.30
2018-08-03T12:09:13.061Z,35.10
2018-08-03T12:11:41.680Z,35.00
2018-08-03T12:14:11.795Z,35.90
2018-08-03T12:16:40.370Z,36.00
2018-08-03T12:21:37.255Z,36.60
2018-08-03T12:24:05.864Z,36.60
2018-08-03T12:29:04.346Z,38.30
2018-08-03T12:31:35.612Z,36.80
2018-08-03T12:34:05.350Z,36.90
2018-08-03T12:41:33.339Z,36.80
2018-08-03T12:49:02.954Z,37.00
2018-08-03T12:51:37.336Z,35.50
2018-08-03T12:54:06.556Z,34.50
2018-08-03T12:56:39.321Z,34.50
2018-08-03T12:59:15.853Z,34.20
2018-08-03T13:01:44.989Z,33.90
2018-08-03T13:06:43.358Z,32.20
2018-08-03T13:09:11.929Z,34.10
2018-08-03T13:11:41.672Z,33.30
2018-08-03T13:16:43.566Z,33.80
2018-08-03T13:19:12.418Z,33.00
2018-08-03T13:24:18.942Z,33.80
2018-08-03T13:26:52.201Z,34.10
2018-08-03T13:29:22.328Z,33.40
2018-08-03T13:31:57.994Z,32.80
2018-08-03T13:37:00.112Z,33.90
2018-08-03T13:47:00.413Z,33.50
2018-08-03T13:49:34.881Z,33.20
2018-08-03T13:52:05.201Z,32.60
2018-08-03T13:54:35.645Z,33.20
2018-08-03T13:57:05.570Z,33.40
2018-08-03T14:02:21.579Z,32.40
2018-08-03T14:04:54.968Z,32.80
2018-08-03T14:07:27.851Z,32.50
2018-08-03T14:10:00.491Z,34.00
2018-08-03T14:12:32.579Z,32.40
2018-08-03T14:17:31.978Z,33.20
2018-08-03T14:22:29.153Z,33.10
2018-08-03T14:24:57.960Z,31.70
2018-08-03T14:27:26.763Z,32.60
2018-08-03T14:29:55.652Z,32.30
2018-08-03T14:34:55.525Z,31.40
2018-08-03T14:37:24.179Z,32.80
2018-08-03T14:44:50.404Z,32.30
2018-08-03T14:49:51.480Z,32.20
2018-08-03T14:52:20.436Z,31.70
2018-08-03T14:57:17.863Z,31.20
2018-08-03T14:59:48.968Z,31.90
2018-08-03T15:02:17.412Z,31.60
2018-08-03T15:04:45.945Z,31.60
2018-08-03T15:07:14.470Z,31.20
2018-08-03T15:14:41.358Z,31.90
2018-08-03T15:17:10.169Z,31.80
2018-08-03T15:19:42.991Z,32.40
2018-08-03T15:22:11.633Z,31.90
2018-08-03T15:29:37.775Z,32.10
2018-08-03T15:32:06.489Z,32.30
2018-08-03T15:37:05.893Z,32.30
2018-08-03T15:39:34.618Z,32.10
2018-08-03T15:42:03.238Z,34.40
2018-08-03T15:44:34.587Z,33.30
2018-08-03T15:47:03.174Z,32.30
2018-08-03T15:49:31.836Z,32.40
2018-08-03T15:52:00.480Z,31.20
2018-08-03T15:54:29.809Z,31.90
2018-08-03T15:59:34.327Z,32.90
2018-08-03T16:02:03.423Z,32.30
2018-08-03T16:04:32.446Z,32.70
2018-08-03T16:07:01.233Z,32.40
2018-08-03T16:09:30.027Z,32.50
2018-08-03T16:11:59.629Z,32.20
2018-08-03T16:14:30.817Z,32.40
2018-08-03T16:17:05.987Z,32.70
2018-08-03T16:19:35.511Z,32.80
2018-08-03T16:22:06.696Z,31.80
2018-08-03T16:24:38.422Z,31.20
2018-08-03T16:29:36.450Z,31.30
2018-08-03T16:32:05.704Z,31.10
2018-08-03T16:34:37.719Z,32.00
2018-08-03T16:37:07.633Z,31.60
2018-08-03T16:42:06.050Z,31.10
2018-08-03T16:44:38.273Z,31.30
2018-08-03T16:47:15.947Z,30.70
2018-08-03T16:49:44.651Z,31.50
2018-08-03T16:54:44.355Z,32.70
2018-08-03T16:59:46.532Z,29.80
2018-08-03T17:02:21.027Z,31.30
2018-08-03T17:04:51.058Z,31.30
2018-08-03T17:09:59.007Z,33.80
2018-08-03T17:15:11.663Z,30.30
2018-08-03T17:17:43.973Z,30.60
2018-08-03T17:20:12.874Z,31.70
2018-08-03T17:22:41.679Z,29.60
2018-08-03T17:25:10.692Z,30.10
2018-08-03T17:27:41.157Z,30.00
2018-08-03T17:30:18.032Z,31.20
2018-08-03T17:32:47.144Z,29.30
2018-08-03T17:35:16.493Z,31.30
2018-08-03T17:37:45.435Z,27.00
2018-08-03T17:40:19.921Z,31.70
2018-08-03T17:42:51.905Z,31.00
2018-08-03T17:45:23.476Z,30.00
2018-08-03T17:55:26.743Z,31.60
2018-08-03T17:57:55.748Z,29.60
2018-08-03T18:03:06.107Z,29.40
2018-08-03T18:05:35.152Z,30.20
2018-08-03T18:08:13.907Z,30.10
2018-08-03T18:10:43.355Z,30.10
2018-08-03T18:13:13.516Z,28.90
2018-08-03T18:15:43.079Z,29.60
2018-08-03T18:30:42.609Z,28.70
2018-08-03T18:33:11.314Z,28.60
2018-08-03T18:35:43.893Z,29.10
2018-08-03T18:48:33.210Z,28.20
2018-08-03T19:01:13.560Z,28.00
2018-08-03T19:03:49.387Z,28.00
2018-08-03T19:08:46.644Z,27.40
2018-08-03T19:13:59.080Z,26.10
2018-08-03T19:16:27.927Z,27.40
2018-08-03T19:19:02.414Z,27.70
2018-08-03T19:24:01.460Z,27.10
2018-08-03T19:26:31.434Z,27.40
2018-08-03T19:34:02.213Z,26.50
2018-08-03T19:36:35.898Z,26.50
2018-08-03T19:41:35.615Z,26.60
2018-08-03T19:44:04.488Z,27.00
2018-08-03T19:49:06.350Z,26.80
2018-08-03T19:51:35.278Z,25.70
2018-08-03T19:54:04.286Z,25.40
2018-08-03T19:59:04.655Z,25.60
2018-08-03T20:04:04.731Z,26.10
2018-08-03T20:06:33.567Z,26.50
2018-08-03T20:09:03.183Z,26.10
2018-08-03T20:11:31.965Z,26.00
2018-08-03T20:14:00.739Z,25.90
2018-08-03T20:16:31.259Z,25.80
2018-08-03T20:21:30.838Z,25.30
2018-08-03T20:24:01.345Z,25.00
2018-08-03T20:29:00.435Z,25.50
2018-08-03T20:31:29.235Z,25.50
2018-08-03T20:38:57.330Z,25.70
2018-08-03T20:41:27.101Z,25.40
2018-08-03T20:43:56.044Z,24.70
2018-08-03T20:51:23.302Z,24.80
2018-08-03T20:53:54.815Z,26.90
2018-08-03T20:58:55.134Z,24.50
2018-08-03T21:03:52.589Z,25.30
2018-08-03T21:06:21.459Z,24.30
2018-08-03T21:08:51.829Z,24.60
2018-08-03T21:16:19.711Z,24.40
2018-08-03T21:21:23.452Z,24.20
2018-08-03T21:23:52.071Z,24.80
2018-08-03T21:26:20.642Z,24.10
2018-08-03T21:31:17.427Z,24.50
2018-08-03T21:33:46.739Z,24.60
2018-08-03T21:41:12.036Z,24.60
2018-08-03T21:48:37.301Z,22.40
2018-08-03T21:51:05.875Z,22.20
2018-08-03T21:53:36.107Z,23.30
2018-08-03T22:01:03.773Z,23.60
2018-08-03T22:03:32.481Z,24.10
2018-08-03T22:06:01.829Z,23.30
2018-08-03T22:11:05.275Z,23.20
2018-08-03T22:16:06.700Z,23.30
2018-08-03T22:21:04.942Z,23.80
2018-08-03T22:28:29.796Z,22.60
2018-08-03T22:35:55.197Z,22.90
2018-08-03T22:40:53.713Z,22.40
2018-08-03T22:43:22.235Z,22.00
2018-08-03T22:45:50.796Z,22.50
2018-08-03T22:55:47.103Z,22.20
2018-08-03T22:58:15.597Z,22.10
2018-08-03T23:03:12.422Z,22.50
2018-08-03T23:05:41.024Z,21.80
2018-08-03T23:13:06.939Z,21.70
2018-08-03T23:18:07.899Z,21.20
2018-08-03T23:20:36.724Z,22.80
2018-08-03T23:23:06.375Z,22.00
2018-08-03T23:25:34.934Z,21.90
2018-08-03T23:33:00.133Z,21.70
2018-08-03T23:40:25.787Z,21.30
2018-08-03T23:42:54.295Z,21.50
2018-08-03T23:50:20.830Z,21.10
2018-08-03T23:52:50.015Z,20.70
2018-08-03T23:55:19.773Z,21.20
2018-08-03T23:57:48.415Z,21.40
